Time;durP1;ratioP1;P1;durP2;ratioP2;P2;SDS_P1;SDS_P2;PMS_P1;PMS_P2;Temp;Humidity;BMP_temperature;BMP_pressure;BME280_temperature;BME280_humidity;BME280_pressure;Samples;Min_cycle;Max_cycle;Signal;HPM_P1;HPM_P2
2022/12/16 00:01:58;;;;;;;14.75;11.18;;;22.10;62.30;;;;;;5062657;28;20079;-77
2022/12/16 00:04:24;;;;;;;14.23;10.40;;;22.10;62.40;;;;;;5054535;28;20029;-77
2022/12/16 00:06:50;;;;;;;14.82;10.85;;;22.10;62.50;;;;;;5036998;28;20541;-77
2022/12/16 00:09:16;;;;;;;17.08;10.23;;;22.10;62.60;;;;;;5054261;28;20043;-77
2022/12/16 00:11:42;;;;;;;11.93;9.60;;;22.00;62.50;;;;;;5054115;28;20120;-77
2022/12/16 00:14:08;;;;;;;15.60;11.27;;;22.10;62.50;;;;;;5057299;28;20047;-77
2022/12/16 00:16:34;;;;;;;12.23;9.38;;;22.00;62.40;;;;;;5064458;28;20037;-76
2022/12/16 00:19:00;;;;;;;15.65;10.65;;;22.00;62.30;;;;;;5073398;28;20055;-78
2022/12/16 00:21:28;;;;;;;14.52;10.13;;;22.00;62.40;;;;;;5061051;28;20378;-77
2022/12/16 00:23:57;;;;;;;13.10;9.65;;;22.00;62.40;;;;;;5053893;28;20512;-77
2022/12/16 00:26:23;;;;;;;14.57;10.65;;;22.00;62.30;;;;;;5036114;28;20535;-77
2022/12/16 00:28:49;;;;;;;14.35;10.65;;;22.00;62.20;;;;;;5053729;28;20737;-76
2022/12/16 00:31:15;;;;;;;15.52;10.30;;;22.00;62.20;;;;;;5049023;28;20043;-78
2022/12/16 00:33:41;;;;;;;16.08;10.52;;;22.10;62.20;;;;;;5073798;28;20039;-75
2022/12/16 00:36:08;;;;;;;17.73;11.35;;;22.00;61.90;;;;;;5064187;28;20033;-78
2022/12/16 00:38:34;;;;;;;15.68;11.38;;;22.00;61.80;;;;;;5053706;28;20029;-77
2022/12/16 00:41:00;;;;;;;19.08;11.95;;;22.10;61.90;;;;;;5055578;28;20037;-77
2022/12/16 00:43:26;;;;;;;17.80;12.30;;;21.90;61.80;;;;;;5053869;28;20086;-77
2022/12/16 00:45:52;;;;;;;15.73;11.25;;;22.00;61.90;;;;;;5058084;28;20031;-78
2022/12/16 00:48:21;;;;;;;16.48;11.07;;;21.90;61.90;;;;;;5053606;28;20126;-77
2022/12/16 00:50:54;;;;;;;17.17;11.73;;;21.80;61.80;;;;;;5037593;28;20393;-76
2022/12/16 00:53:22;;;;;;;15.40;11.07;;;21.80;62.00;;;;;;5055542;28;20032;-77
2022/12/16 00:55:48;;;;;;;18.75;12.30;;;21.70;62.10;;;;;;5070622;28;20505;-78
2022/12/16 00:58:14;;;;;;;16.20;10.88;;;21.80;62.10;;;;;;5073402;28;20112;-77
2022/12/16 01:00:40;;;;;;;19.27;12.82;;;21.80;62.30;;;;;;5065681;28;20048;-76
2022/12/16 01:03:06;;;;;;;21.60;13.20;;;21.70;62.10;;;;;;5070086;28;20033;-78
2022/12/16 01:05:32;;;;;;;16.02;11.73;;;21.80;62.20;;;;;;5071729;28;20071;-77
2022/12/16 01:07:58;;;;;;;18.60;12.77;;;21.70;62.20;;;;;;5073355;28;20036;-77
2022/12/16 01:10:25;;;;;;;18.27;12.55;;;21.70;62.20;;;;;;5054551;28;20435;-77
2022/12/16 01:12:51;;;;;;;20.17;12.43;;;21.70;62.10;;;;;;5053473;28;20064;-77
2022/12/16 01:15:18;;;;;;;20.90;13.13;;;21.80;62.00;;;;;;5068196;28;20028;-74
2022/12/16 01:17:45;;;;;;;19.77;12.85;;;21.70;62.10;;;;;;5035114;28;20389;-78
2022/12/16 01:20:12;;;;;;;20.67;12.35;;;21.90;62.00;;;;;;5055518;28;20028;-77
2022/12/16 01:22:38;;;;;;;17.80;11.65;;;21.80;62.00;;;;;;5036310;28;20036;-75
2022/12/16 01:25:04;;;;;;;21.15;13.60;;;21.80;61.90;;;;;;5053070;28;20033;-76
2022/12/16 01:27:30;;;;;;;18.52;11.90;;;21.80;61.80;;;;;;5001422;28;20466;-77
2022/12/16 01:29:56;;;;;;;20.00;11.23;;;21.80;61.80;;;;;;5058562;28;20051;-78
2022/12/16 01:32:22;;;;;;;14.90;9.93;;;21.90;61.70;;;;;;5071506;28;20043;-77
2022/12/16 01:34:53;;;;;;;19.75;10.15;;;22.00;61.70;;;;;;5067668;28;20029;-77
2022/12/16 01:37:19;;;;;;;16.58;9.93;;;21.80;61.40;;;;;;5070568;28;20477;-76
2022/12/16 01:39:46;;;;;;;14.18;9.63;;;21.80;61.60;;;;;;5072770;28;20842;-77
2022/12/16 01:42:18;;;;;;;12.95;8.65;;;21.80;61.60;;;;;;5071846;28;20073;-77
2022/12/16 01:44:46;;;;;;;16.75;9.30;;;21.70;61.60;;;;;;5069441;28;20032;-77
2022/12/16 01:47:25;;;;;;;11.52;8.07;;;21.70;61.60;;;;;;5059021;28;20037;-77
2022/12/16 01:49:51;;;;;;;11.52;7.57;;;21.70;61.80;;;;;;5052402;28;20033;-77
2022/12/16 01:52:22;;;;;;;11.88;8.40;;;21.80;61.80;;;;;;5053853;28;20033;-77
2022/12/16 01:54:55;;;;;;;12.43;7.95;;;21.70;61.70;;;;;;5033986;28;20429;-77
2022/12/16 01:57:28;;;;;;;10.73;7.57;;;21.90;61.90;;;;;;5051825;28;20470;-77
2022/12/16 01:59:55;;;;;;;11.32;8.10;;;21.70;61.90;;;;;;5060440;28;20025;-77
2022/12/16 02:02:22;;;;;;;13.05;8.30;;;21.70;62.10;;;;;;5069633;28;20462;-77
2022/12/16 02:07:33;;;;;;;12.00;8.50;;;21.70;61.90;;;;;;5055296;28;20033;-76
2022/12/16 02:09:59;;;;;;;11.88;8.80;;;21.70;61.80;;;;;;5067670;28;20060;-77
2022/12/16 02:12:45;;;;;;;10.15;6.72;;;21.70;61.70;;;;;;5071575;28;20032;-78
2022/12/16 02:15:26;;;;;;;12.88;8.52;;;21.70;61.70;;;;;;5066129;28;20024;-75
2022/12/16 02:18:14;;;;;;;11.85;7.68;;;21.80;61.60;;;;;;5051708;28;20108;-73
2022/12/16 02:20:52;;;;;;;10.27;7.55;;;21.80;61.70;;;;;;5052119;28;20028;-77
2022/12/16 02:23:52;;;;;;;10.05;7.45;;;21.80;61.70;;;;;;5051937;28;20033;-77
2022/12/16 02:26:36;;;;;;;9.88;7.32;;;21.90;61.70;;;;;;5051750;28;20079;-78
2022/12/16 02:29:44;;;;;;;8.55;6.07;;;21.80;61.50;;;;;;5054659;28;20032;-77
2022/12/16 02:32:56;;;;;;;10.20;7.10;;;21.80;61.30;;;;;;5051678;28;20147;-77
2022/12/16 02:35:31;;;;;;;9.63;7.10;;;21.80;61.20;;;;;;4950475;28;20042;-76
2022/12/16 02:38:25;;;;;;;7.50;5.93;;;21.80;61.20;;;;;;4959621;28;20047;-77
2022/12/16 02:41:03;;;;;;;8.85;6.35;;;21.90;61.50;;;;;;4955621;28;20043;-77
2022/12/16 02:43:50;;;;;;;10.32;6.65;;;21.80;61.50;;;;;;4970153;28;20062;-78
2022/12/16 02:46:20;;;;;;;8.75;6.00;;;21.70;61.50;;;;;;4961062;28;20058;-77
2022/12/16 02:48:46;;;;;;;8.13;5.30;;;21.70;61.70;;;;;;4930336;29;20175;-77
2022/12/16 02:51:12;;;;;;;9.20;5.60;;;21.70;61.70;;;;;;4955023;28;20125;-78
2022/12/16 02:53:40;;;;;;;11.40;6.15;;;21.70;61.70;;;;;;4954006;28;20043;-77
2022/12/16 02:56:40;;;;;;;7.03;5.50;;;21.80;61.70;;;;;;4969332;28;20042;-78
2022/12/16 02:59:13;;;;;;;6.57;4.63;;;21.80;61.70;;;;;;4968966;28;20070;-78
2022/12/16 03:01:41;;;;;;;8.02;5.40;;;21.70;61.80;;;;;;4964193;28;20031;-77
2022/12/16 03:04:18;;;;;;;6.18;4.68;;;21.70;61.80;;;;;;4969604;28;20085;-77
2022/12/16 03:06:48;;;;;;;6.30;4.28;;;21.70;61.70;;;;;;4960783;28;20154;-77
2022/12/16 03:09:22;;;;;;;6.80;4.68;;;21.90;61.90;;;;;;4950536;29;20039;-76
2022/12/16 03:11:50;;;;;;;8.00;4.60;;;21.80;61.60;;;;;;4988692;28;20109;-77
2022/12/16 03:14:19;;;;;;;6.60;4.85;;;21.80;61.60;;;;;;5070281;28;20040;-77
2022/12/16 03:16:46;;;;;;;4.35;3.78;;;21.80;61.40;;;;;;5065538;28;20519;-77
2022/12/16 03:19:13;;;;;;;5.07;3.55;;;21.80;61.40;;;;;;5070887;28;20029;-76
2022/12/16 03:22:08;;;;;;;5.45;3.80;;;21.90;61.40;;;;;;5063216;28;20036;-77
2022/12/16 03:24:35;;;;;;;4.40;3.95;;;21.90;61.00;;;;;;5050954;28;20036;-78
2022/12/16 03:27:33;;;;;;;4.30;3.60;;;22.00;61.10;;;;;;5050857;28;20029;-78
2022/12/16 03:30:08;;;;;;;3.63;3.22;;;22.00;61.10;;;;;;5059828;28;20028;-76
2022/12/16 03:33:16;;;;;;;3.53;3.22;;;22.00;60.80;;;;;;5069762;28;20036;-77
2022/12/16 03:35:49;;;;;;;3.38;3.08;;;21.90;61.10;;;;;;4988877;28;20045;-80
2022/12/16 03:38:16;;;;;;;;;;;21.90;60.90;;;;;;4976351;28;20043;-80
2022/12/16 03:40:43;;;;;;;4.63;3.28;;;21.90;60.80;;;;;;4959877;28;19910;-79
2022/12/16 03:43:13;;;;;;;3.92;2.95;;;21.90;60.80;;;;;;4975829;28;20086;-79
2022/12/16 03:45:42;;;;;;;4.82;3.47;;;21.80;60.80;;;;;;4979021;28;20806;-79
2022/12/16 03:48:10;;;;;;;2.92;2.65;;;21.80;60.30;;;;;;4975811;28;20034;-79
2022/12/16 03:50:38;;;;;;;3.97;3.00;;;21.80;60.70;;;;;;4975925;28;20073;-80
2022/12/16 03:53:05;;;;;;;3.65;3.33;;;21.90;60.10;;;;;;4991718;28;20039;-76
2022/12/16 03:55:31;;;;;;;4.93;3.38;;;21.80;60.40;;;;;;4995451;28;20030;-79
2022/12/16 03:57:57;;;;;;;4.45;3.70;;;21.80;60.20;;;;;;4990518;28;20088;-80
2022/12/16 04:00:24;;;;;;;3.75;3.10;;;21.80;60.40;;;;;;4979824;28;20037;-80
2022/12/16 04:02:50;;;;;;;4.78;3.50;;;21.80;60.50;;;;;;4956269;28;20132;-77
2022/12/16 04:05:16;;;;;;;4.95;3.75;;;21.90;60.30;;;;;;4965996;28;20124;-79
2022/12/16 04:07:42;;;;;;;4.22;3.20;;;21.80;60.00;;;;;;4957932;28;20046;-71
2022/12/16 04:10:08;;;;;;;3.75;3.08;;;21.90;60.20;;;;;;4999979;28;20072;-80
2022/12/16 04:27:23;;;;;;;4.07;3.25;;;22.00;59.20;;;;;;5052771;28;20132;-79
2022/12/16 04:29:21;;;;;;;4.13;3.08;;;22.00;58.80;;;;;;5050605;28;20057;-78
2022/12/16 04:31:47;;;;;;;5.05;4.03;;;21.90;59.10;;;;;;5048015;28;20487;-79
2022/12/16 04:34:26;;;;;;;5.35;3.38;;;22.00;59.00;;;;;;5068739;28;20139;-79
